sensor_id;sensor_type;location;lat;lon;timestamp;pressure;altitude;pressure_sealevel;temperature;humidity
63554;BME280;49699;48.072;7.800;2023-04-10T00:00:46;99939.31;;;7.66;55.45
63554;BME280;49699;48.072;7.800;2023-04-10T00:03:12;99934.19;;;7.64;55.46
63554;BME280;49699;48.072;7.800;2023-04-10T00:05:38;99942.97;;;7.60;55.19
63554;BME280;49699;48.072;7.800;2023-04-10T00:08:03;99936.31;;;7.53;55.99
63554;BME280;49699;48.072;7.800;2023-04-10T00:10:28;99938.38;;;7.45;56.11
63554;BME280;49699;48.072;7.800;2023-04-10T00:12:56;99940.44;;;7.36;56.42
63554;BME280;49699;48.072;7.800;2023-04-10T00:15:21;99940.78;;;7.26;56.66
63554;BME280;49699;48.072;7.800;2023-04-10T00:17:46;99932.50;;;7.17;56.87
63554;BME280;49699;48.072;7.800;2023-04-10T00:20:14;99931.94;;;7.09;56.94
63554;BME280;49699;48.072;7.800;2023-04-10T00:22:39;99937.50;;;6.98;57.31
63554;BME280;49699;48.072;7.800;2023-04-10T00:25:06;99930.84;;;6.91;57.41
63554;BME280;49699;48.072;7.800;2023-04-10T00:27:31;99925.13;;;6.81;57.98
63554;BME280;49699;48.072;7.800;2023-04-10T00:29:56;99920.31;;;6.71;58.00
63554;BME280;49699;48.072;7.800;2023-04-10T00:32:22;99916.31;;;6.62;58.56
63554;BME280;49699;48.072;7.800;2023-04-10T00:34:47;99918.25;;;6.55;58.76
63554;BME280;49699;48.072;7.800;2023-04-10T00:37:12;99919.34;;;6.48;58.64
63554;BME280;49699;48.072;7.800;2023-04-10T00:39:38;99918.69;;;6.43;58.99
63554;BME280;49699;48.072;7.800;2023-04-10T00:42:03;99917.13;;;6.38;58.99
63554;BME280;49699;48.072;7.800;2023-04-10T00:44:33;99926.81;;;6.31;59.46
63554;BME280;49699;48.072;7.800;2023-04-10T00:47:02;99918.44;;;6.24;59.48
63554;BME280;49699;48.072;7.800;2023-04-10T00:49:27;99921.28;;;6.15;59.72
63554;BME280;49699;48.072;7.800;2023-04-10T00:51:52;99913.84;;;6.06;60.08
63554;BME280;49699;48.072;7.800;2023-04-10T00:54:18;99912.25;;;6.02;60.32
63554;BME280;49699;48.072;7.800;2023-04-10T00:56:45;99917.63;;;5.95;60.60
63554;BME280;49699;48.072;7.800;2023-04-10T00:59:11;99921.28;;;5.89;60.72
63554;BME280;49699;48.072;7.800;2023-04-10T01:01:36;99910.38;;;5.78;61.04
63554;BME280;49699;48.072;7.800;2023-04-10T01:04:01;99909.81;;;5.68;61.29
63554;BME280;49699;48.072;7.800;2023-04-10T01:09:15;99920.41;;;5.59;61.50
63554;BME280;49699;48.072;7.800;2023-04-10T01:17:03;99919.06;;;5.47;62.14
63554;BME280;49699;48.072;7.800;2023-04-10T01:22:14;99922.72;;;5.39;62.38
63554;BME280;49699;48.072;7.800;2023-04-10T01:30:06;99924.00;;;5.24;63.26
63554;BME280;49699;48.072;7.800;2023-04-10T01:32:36;99921.66;;;5.16;63.33
63554;BME280;49699;48.072;7.800;2023-04-10T01:35:04;99922.72;;;5.09;64.00
63554;BME280;49699;48.072;7.800;2023-04-10T01:37:30;99920.25;;;5.05;63.69
63554;BME280;49699;48.072;7.800;2023-04-10T01:40:00;99915.16;;;5.02;63.99
63554;BME280;49699;48.072;7.800;2023-04-10T01:42:27;99911.84;;;4.98;64.39
63554;BME280;49699;48.072;7.800;2023-04-10T01:44:54;99914.59;;;4.92;64.73
63554;BME280;49699;48.072;7.800;2023-04-10T01:47:21;99913.91;;;4.85;64.99
63554;BME280;49699;48.072;7.800;2023-04-10T01:49:48;99916.66;;;4.79;65.22
63554;BME280;49699;48.072;7.800;2023-04-10T01:52:14;99915.97;;;4.73;65.43
63554;BME280;49699;48.072;7.800;2023-04-10T01:54:44;99911.78;;;4.67;65.55
63554;BME280;49699;48.072;7.800;2023-04-10T01:57:15;99916.22;;;4.64;65.58
63554;BME280;49699;48.072;7.800;2023-04-10T01:59:50;99924.03;;;4.61;65.92
63554;BME280;49699;48.072;7.800;2023-04-10T02:02:21;99924.03;;;4.61;65.71
63554;BME280;49699;48.072;7.800;2023-04-10T02:05:00;99919.75;;;4.60;65.62
63554;BME280;49699;48.072;7.800;2023-04-10T02:10:12;99912.97;;;4.56;65.78
63554;BME280;49699;48.072;7.800;2023-04-10T02:12:38;99913.94;;;4.51;65.95
63554;BME280;49699;48.072;7.800;2023-04-10T02:15:05;99918.38;;;4.46;66.13
63554;BME280;49699;48.072;7.800;2023-04-10T02:17:32;99917.59;;;4.43;66.12
63554;BME280;49699;48.072;7.800;2023-04-10T02:19:59;99920.22;;;4.41;66.10
63554;BME280;49699;48.072;7.800;2023-04-10T02:22:25;99931.41;;;4.40;66.36
63554;BME280;49699;48.072;7.800;2023-04-10T02:24:51;99921.97;;;4.39;66.57
63554;BME280;49699;48.072;7.800;2023-04-10T02:27:27;99916.00;;;4.37;66.82
63554;BME280;49699;48.072;7.800;2023-04-10T02:29:52;99919.47;;;4.36;66.79
63554;BME280;49699;48.072;7.800;2023-04-10T02:32:18;99916.06;;;4.34;66.73
63554;BME280;49699;48.072;7.800;2023-04-10T02:34:44;99912.66;;;4.34;66.67
63554;BME280;49699;48.072;7.800;2023-04-10T02:37:10;99918.69;;;4.33;66.94
63554;BME280;49699;48.072;7.800;2023-04-10T02:39:35;99919.69;;;4.29;67.18
63554;BME280;49699;48.072;7.800;2023-04-10T02:42:01;99921.44;;;4.27;67.20
63554;BME280;49699;48.072;7.800;2023-04-10T02:44:26;99923.19;;;4.25;67.31
63554;BME280;49699;48.072;7.800;2023-04-10T02:46:52;99925.78;;;4.25;67.17
63554;BME280;49699;48.072;7.800;2023-04-10T02:49:18;99925.84;;;4.22;67.64
63554;BME280;49699;48.072;7.800;2023-04-10T02:51:43;99926.72;;;4.21;67.87
63554;BME280;49699;48.072;7.800;2023-04-10T02:54:08;99932.78;;;4.18;67.95
63554;BME280;49699;48.072;7.800;2023-04-10T02:56:35;99928.56;;;4.15;68.18
63554;BME280;49699;48.072;7.800;2023-04-10T02:59:01;99924.41;;;4.10;68.20
63554;BME280;49699;48.072;7.800;2023-04-10T03:01:26;99917.63;;;4.06;68.47
63554;BME280;49699;48.072;7.800;2023-04-10T03:03:52;99914.22;;;4.05;68.49
63554;BME280;49699;48.072;7.800;2023-04-10T03:06:24;99905.75;;;4.00;68.79
63554;BME280;49699;48.072;7.800;2023-04-10T03:08:52;99902.50;;;3.92;69.04
63554;BME280;49699;48.072;7.800;2023-04-10T03:11:17;99908.66;;;3.87;69.25
63554;BME280;49699;48.072;7.800;2023-04-10T03:13:43;99895.91;;;3.80;69.58
63554;BME280;49699;48.072;7.800;2023-04-10T03:16:08;99899.47;;;3.75;69.63
63554;BME280;49699;48.072;7.800;2023-04-10T03:18:33;99896.97;;;3.72;69.65
63554;BME280;49699;48.072;7.800;2023-04-10T03:20:59;99893.53;;;3.71;69.55
63554;BME280;49699;48.072;7.800;2023-04-10T03:23:24;99884.16;;;3.69;69.60
63554;BME280;49699;48.072;7.800;2023-04-10T03:25:50;99886.75;;;3.69;70.02
63554;BME280;49699;48.072;7.800;2023-04-10T03:28:20;99887.56;;;3.71;69.50
63554;BME280;49699;48.072;7.800;2023-04-10T03:30:46;99892.66;;;3.72;69.62
63554;BME280;49699;48.072;7.800;2023-04-10T03:33:12;99884.09;;;3.72;69.83
63554;BME280;49699;48.072;7.800;2023-04-10T03:35:37;99879.06;;;3.66;69.90
63554;BME280;49699;48.072;7.800;2023-04-10T03:38:02;99876.69;;;3.58;70.03
63554;BME280;49699;48.072;7.800;2023-04-10T03:40:27;99868.28;;;3.50;70.53
63554;BME280;49699;48.072;7.800;2023-04-10T03:42:53;99874.44;;;3.43;70.90
63554;BME280;49699;48.072;7.800;2023-04-10T03:45:19;99877.19;;;3.35;71.58
63554;BME280;49699;48.072;7.800;2023-04-10T03:47:45;99868.72;;;3.30;71.62
63554;BME280;49699;48.072;7.800;2023-04-10T03:50:13;99873.09;;;3.25;72.16
63554;BME280;49699;48.072;7.800;2023-04-10T03:52:50;99874.13;;;3.18;72.03
63554;BME280;49699;48.072;7.800;2023-04-10T03:55:18;99880.25;;;3.11;72.83
63554;BME280;49699;48.072;7.800;2023-04-10T03:57:47;99871.00;;;3.02;72.97
63554;BME280;49699;48.072;7.800;2023-04-10T04:00:14;99876.19;;;3.01;72.90
63554;BME280;49699;48.072;7.800;2023-04-10T04:02:47;99871.00;;;3.02;72.75
63554;BME280;49699;48.072;7.800;2023-04-10T04:05:23;99874.41;;;3.04;72.84
63554;BME280;49699;48.072;7.800;2023-04-10T04:08:14;99878.63;;;3.05;72.72
63554;BME280;49699;48.072;7.800;2023-04-10T04:11:02;99879.56;;;3.03;72.81
63554;BME280;49699;48.072;7.800;2023-04-10T04:13:34;99880.44;;;3.02;73.09
63554;BME280;49699;48.072;7.800;2023-04-10T04:16:07;99886.44;;;3.02;72.95
63554;BME280;49699;48.072;7.800;2023-04-10T04:18:43;99883.91;;;3.01;73.34
63554;BME280;49699;48.072;7.800;2023-04-10T04:21:35;99881.31;;;3.01;73.39
63554;BME280;49699;48.072;7.800;2023-04-10T04:24:19;99871.88;;;3.03;73.13
63554;BME280;49699;48.072;7.800;2023-04-10T04:26:59;99888.06;;;3.05;73.22
63554;BME280;49699;48.072;7.800;2023-04-10T04:29:46;99876.19;;;3.01;73.15
63554;BME280;49699;48.072;7.800;2023-04-10T04:32:22;99879.78;;;2.92;73.69
63554;BME280;49699;48.072;7.800;2023-04-10T04:35:20;99881.66;;;2.84;73.87
63554;BME280;49699;48.072;7.800;2023-04-10T04:38:05;99884.31;;;2.79;73.93
63554;BME280;49699;48.072;7.800;2023-04-10T04:40:53;99886.00;;;2.81;73.89
63554;BME280;49699;48.072;7.800;2023-04-10T04:43:36;99883.41;;;2.82;73.74
63554;BME280;49699;48.072;7.800;2023-04-10T04:46:22;99883.41;;;2.82;73.94
63554;BME280;49699;48.072;7.800;2023-04-10T04:49:01;99887.69;;;2.83;73.84
63554;BME280;49699;48.072;7.800;2023-04-10T04:51:45;99885.13;;;2.82;73.71
63554;BME280;49699;48.072;7.800;2023-04-10T04:54:24;99888.56;;;2.82;74.20
63554;BME280;49699;48.072;7.800;2023-04-10T04:57:08;99888.50;;;2.85;73.94
63554;BME280;49699;48.072;7.800;2023-04-10T04:59:52;99890.13;;;2.88;73.80
63554;BME280;49699;48.072;7.800;2023-04-10T05:02:40;99889.22;;;2.90;73.86
63554;BME280;49699;48.072;7.800;2023-04-10T05:05:26;99893.47;;;2.93;73.77
63554;BME280;49699;48.072;7.800;2023-04-10T05:08:10;99885.78;;;2.91;73.54
63554;BME280;49699;48.072;7.800;2023-04-10T05:11:04;99896.06;;;2.91;73.57
63554;BME280;49699;48.072;7.800;2023-04-10T05:13:53;99888.31;;;2.93;73.55
63554;BME280;49699;48.072;7.800;2023-04-10T05:16:24;99891.72;;;2.95;73.67
63554;BME280;49699;48.072;7.800;2023-04-10T05:18:59;99893.41;;;2.97;73.53
63554;BME280;49699;48.072;7.800;2023-04-10T05:21:52;99898.50;;;2.99;73.43
63554;BME280;49699;48.072;7.800;2023-04-10T05:24:28;99900.19;;;3.01;73.47
63554;BME280;49699;48.072;7.800;2023-04-10T05:27:15;99901.88;;;3.02;73.47
63554;BME280;49699;48.072;7.800;2023-04-10T05:29:44;99906.13;;;3.03;73.72
63554;BME280;49699;48.072;7.800;2023-04-10T05:32:21;99897.63;;;3.00;73.65
63554;BME280;49699;48.072;7.800;2023-04-10T05:35:05;99901.03;;;3.02;73.62
63554;BME280;49699;48.072;7.800;2023-04-10T05:37:33;99897.56;;;3.03;73.82
63554;BME280;49699;48.072;7.800;2023-04-10T05:40:19;99899.31;;;3.01;73.84
63554;BME280;49699;48.072;7.800;2023-04-10T05:42:55;99893.28;;;3.03;73.83
63554;BME280;49699;48.072;7.800;2023-04-10T05:45:27;99895.00;;;3.03;73.58
63554;BME280;49699;48.072;7.800;2023-04-10T05:48:20;99901.78;;;3.05;73.26
63554;BME280;49699;48.072;7.800;2023-04-10T05:51:13;99911.19;;;3.06;73.64
63554;BME280;49699;48.072;7.800;2023-04-10T05:53:57;99906.78;;;3.13;73.24
63554;BME280;49699;48.072;7.800;2023-04-10T05:56:42;99916.91;;;3.22;73.17
63554;BME280;49699;48.072;7.800;2023-04-10T05:59:38;99918.34;;;3.35;72.47
63554;BME280;49699;48.072;7.800;2023-04-10T06:02:24;99911.22;;;3.48;72.03
63554;BME280;49699;48.072;7.800;2023-04-10T06:04:51;99914.34;;;3.61;72.00
63554;BME280;49699;48.072;7.800;2023-04-10T06:07:16;99904.66;;;3.73;71.34
63554;BME280;49699;48.072;7.800;2023-04-10T06:09:42;99909.47;;;3.89;71.08
63554;BME280;49699;48.072;7.800;2023-04-10T06:12:08;99910.78;;;4.05;70.78
63554;BME280;49699;48.072;7.800;2023-04-10T06:14:35;99902.72;;;4.18;70.53
63554;BME280;49699;48.072;7.800;2023-04-10T06:17:00;99911.81;;;4.33;70.13
63554;BME280;49699;48.072;7.800;2023-04-10T06:19:26;99910.56;;;4.48;69.34
63554;BME280;49699;48.072;7.800;2023-04-10T06:21:51;99908.44;;;4.65;68.79
63554;BME280;49699;48.072;7.800;2023-04-10T06:24:16;99917.44;;;4.83;68.33
63554;BME280;49699;48.072;7.800;2023-04-10T06:26:45;99915.28;;;4.99;68.08
63554;BME280;49699;48.072;7.800;2023-04-10T06:29:10;99920.91;;;5.13;67.63
63554;BME280;49699;48.072;7.800;2023-04-10T06:31:37;99914.41;;;5.29;67.23
63554;BME280;49699;48.072;7.800;2023-04-10T06:34:02;99909.69;;;5.43;67.40
63554;BME280;49699;48.072;7.800;2023-04-10T06:36:27;99913.47;;;5.61;66.52
63554;BME280;49699;48.072;7.800;2023-04-10T06:39:00;99915.41;;;5.82;66.41
63554;BME280;49699;48.072;7.800;2023-04-10T06:41:27;99913.22;;;5.98;65.58
63554;BME280;49699;48.072;7.800;2023-04-10T06:43:54;99917.09;;;6.11;65.56
63554;BME280;49699;48.072;7.800;2023-04-10T06:46:19;99915.09;;;6.21;65.04
63554;BME280;49699;48.072;7.800;2023-04-10T06:48:45;99909.50;;;6.33;64.35
63554;BME280;49699;48.072;7.800;2023-04-10T06:51:10;99906.31;;;6.51;63.69
63554;BME280;49699;48.072;7.800;2023-04-10T06:53:35;99900.56;;;6.68;63.14
63554;BME280;49699;48.072;7.800;2023-04-10T06:56:01;99916.31;;;6.87;62.78
63554;BME280;49699;48.072;7.800;2023-04-10T06:58:26;99911.34;;;7.06;62.54
63554;BME280;49699;48.072;7.800;2023-04-10T07:00:51;99913.91;;;7.30;61.69
63554;BME280;49699;48.072;7.800;2023-04-10T07:03:18;99907.91;;;7.52;61.06
63554;BME280;49699;48.072;7.800;2023-04-10T07:05:43;99907.13;;;7.72;60.48
63554;BME280;49699;48.072;7.800;2023-04-10T07:08:08;99906.94;;;7.99;59.98
63554;BME280;49699;48.072;7.800;2023-04-10T07:10:34;99899.78;;;8.26;59.14
63554;BME280;49699;48.072;7.800;2023-04-10T07:13:00;99905.75;;;8.50;58.58
63554;BME280;49699;48.072;7.800;2023-04-10T07:15:25;99898.09;;;8.67;58.11
63554;BME280;49699;48.072;7.800;2023-04-10T07:17:50;99899.59;;;8.93;57.59
63554;BME280;49699;48.072;7.800;2023-04-10T07:20:16;99895.81;;;9.19;56.96
63554;BME280;49699;48.072;7.800;2023-04-10T07:22:41;99898.25;;;9.43;56.17
63554;BME280;49699;48.072;7.800;2023-04-10T07:25:06;99898.03;;;9.66;55.12
63554;BME280;49699;48.072;7.800;2023-04-10T07:27:32;99896.25;;;9.85;54.27
63554;BME280;49699;48.072;7.800;2023-04-10T07:29:58;99888.56;;;10.01;54.56
63554;BME280;49699;48.072;7.800;2023-04-10T07:32:23;99887.72;;;10.19;54.03
63554;BME280;49699;48.072;7.800;2023-04-10T07:34:48;99884.88;;;10.41;53.22
63554;BME280;49699;48.072;7.800;2023-04-10T07:37:14;99893.06;;;10.68;52.85
63554;BME280;49699;48.072;7.800;2023-04-10T07:39:39;99888.47;;;10.90;52.07
63554;BME280;49699;48.072;7.800;2023-04-10T07:42:05;99893.56;;;11.09;51.77
63554;BME280;49699;48.072;7.800;2023-04-10T07:44:30;99890.97;;;11.25;51.11
63554;BME280;49699;48.072;7.800;2023-04-10T07:46:55;99891.47;;;11.31;51.20
63554;BME280;49699;48.072;7.800;2023-04-10T07:49:21;99891.06;;;11.39;51.09
63554;BME280;49699;48.072;7.800;2023-04-10T07:51:46;99892.00;;;11.54;50.56
63554;BME280;49699;48.072;7.800;2023-04-10T07:54:12;99888.31;;;11.73;50.27
63554;BME280;49699;48.072;7.800;2023-04-10T07:56:37;99890.16;;;12.03;49.72
63554;BME280;49699;48.072;7.800;2023-04-10T07:59:02;99879.00;;;12.31;49.02
63554;BME280;49699;48.072;7.800;2023-04-10T08:01:28;99883.16;;;12.49;48.55
63554;BME280;49699;48.072;7.800;2023-04-10T08:03:53;99874.97;;;12.55;48.44
63554;BME280;49699;48.072;7.800;2023-04-10T08:06:20;99872.19;;;12.72;48.12
63554;BME280;49699;48.072;7.800;2023-04-10T08:08:45;99872.16;;;12.88;47.79
63554;BME280;49699;48.072;7.800;2023-04-10T08:11:24;99866.81;;;13.04;47.46
63554;BME280;49699;48.072;7.800;2023-04-10T08:13:53;99868.28;;;13.08;47.03
63554;BME280;49699;48.072;7.800;2023-04-10T08:16:25;99872.81;;;13.20;46.86
63554;BME280;49699;48.072;7.800;2023-04-10T08:18:51;99867.97;;;13.42;46.45
63554;BME280;49699;48.072;7.800;2023-04-10T08:21:17;99871.44;;;13.70;45.84
63554;BME280;49699;48.072;7.800;2023-04-10T08:23:42;99874.75;;;13.86;45.45
63554;BME280;49699;48.072;7.800;2023-04-10T08:26:07;99862.72;;;14.10;45.01
63554;BME280;49699;48.072;7.800;2023-04-10T08:28:33;99868.84;;;14.36;44.47
63554;BME280;49699;48.072;7.800;2023-04-10T08:30:58;99859.47;;;14.59;44.06
63554;BME280;49699;48.072;7.800;2023-04-10T08:33:23;99863.81;;;14.85;43.56
63554;BME280;49699;48.072;7.800;2023-04-10T08:35:49;99861.06;;;15.00;43.32
63554;BME280;49699;48.072;7.800;2023-04-10T08:38:14;99863.16;;;15.20;43.08
63554;BME280;49699;48.072;7.800;2023-04-10T08:40:39;99857.09;;;15.43;42.67
63554;BME280;49699;48.072;7.800;2023-04-10T08:43:05;99857.03;;;15.57;42.15
63554;BME280;49699;48.072;7.800;2023-04-10T08:45:30;99859.38;;;15.73;41.69
63554;BME280;49699;48.072;7.800;2023-04-10T08:47:56;99852.25;;;15.75;41.57
63554;BME280;49699;48.072;7.800;2023-04-10T08:50:22;99861.06;;;15.74;41.34
63554;BME280;49699;48.072;7.800;2023-04-10T08:52:48;99852.66;;;15.69;41.43
63554;BME280;49699;48.072;7.800;2023-04-10T08:55:15;99852.56;;;15.71;41.55
63554;BME280;49699;48.072;7.800;2023-04-10T08:57:41;99844.00;;;15.80;41.32
63554;BME280;49699;48.072;7.800;2023-04-10T09:00:06;99841.50;;;16.02;41.04
63554;BME280;49699;48.072;7.800;2023-04-10T09:02:32;99848.63;;;16.24;40.30
63554;BME280;49699;48.072;7.800;2023-04-10T09:04:57;99843.50;;;16.22;40.11
63554;BME280;49699;48.072;7.800;2023-04-10T09:07:25;99841.13;;;16.30;39.99
63554;BME280;49699;48.072;7.800;2023-04-10T09:09:51;99836.00;;;16.29;39.84
63554;BME280;49699;48.072;7.800;2023-04-10T09:12:16;99838.25;;;16.22;39.95
63554;BME280;49699;48.072;7.800;2023-04-10T09:14:41;99829.53;;;16.22;39.96
63554;BME280;49699;48.072;7.800;2023-04-10T09:19:42;99815.81;;;16.64;39.68
63554;BME280;49699;48.072;7.800;2023-04-10T09:22:08;99809.00;;;16.84;39.01
63554;BME280;49699;48.072;7.800;2023-04-10T09:24:40;99806.75;;;16.91;39.04
63554;BME280;49699;48.072;7.800;2023-04-10T09:27:05;99805.19;;;17.11;38.79
63554;BME280;49699;48.072;7.800;2023-04-10T09:29:41;99804.09;;;17.24;38.29
63554;BME280;49699;48.072;7.800;2023-04-10T09:32:06;99798.19;;;17.43;38.17
63554;BME280;49699;48.072;7.800;2023-04-10T09:34:32;99792.53;;;17.70;37.64
63554;BME280;49699;48.072;7.800;2023-04-10T09:36:58;99792.06;;;17.97;37.13
63554;BME280;49699;48.072;7.800;2023-04-10T09:39:34;99786.25;;;18.14;36.85
63554;BME280;49699;48.072;7.800;2023-04-10T09:42:00;99787.47;;;18.31;36.43
63554;BME280;49699;48.072;7.800;2023-04-10T09:44:29;99797.28;;;18.50;36.17
63554;BME280;49699;48.072;7.800;2023-04-10T09:46:55;99788.53;;;18.60;36.17
63554;BME280;49699;48.072;7.800;2023-04-10T09:49:21;99792.47;;;18.55;35.89
63554;BME280;49699;48.072;7.800;2023-04-10T09:51:46;99778.16;;;18.27;36.65
63554;BME280;49699;48.072;7.800;2023-04-10T09:54:13;99774.81;;;18.25;36.62
63554;BME280;49699;48.072;7.800;2023-04-10T09:56:39;99775.97;;;18.32;36.50
63554;BME280;49699;48.072;7.800;2023-04-10T09:59:05;99773.94;;;18.45;36.44
63554;BME280;49699;48.072;7.800;2023-04-10T10:01:31;99766.94;;;18.55;36.24
63554;BME280;49699;48.072;7.800;2023-04-10T10:04:00;99759.56;;;18.70;35.95
63554;BME280;49699;48.072;7.800;2023-04-10T10:06:25;99751.25;;;18.75;35.70
63554;BME280;49699;48.072;7.800;2023-04-10T10:08:51;99752.69;;;18.88;35.33
63554;BME280;49699;48.072;7.800;2023-04-10T10:11:18;99749.53;;;18.94;35.27
63554;BME280;49699;48.072;7.800;2023-04-10T10:13:48;99739.31;;;19.20;35.03
63554;BME280;49699;48.072;7.800;2023-04-10T10:16:17;99743.09;;;19.37;34.87
63554;BME280;49699;48.072;7.800;2023-04-10T10:18:44;99745.31;;;19.32;34.99
63554;BME280;49699;48.072;7.800;2023-04-10T10:21:12;99736.28;;;19.25;35.07
63554;BME280;49699;48.072;7.800;2023-04-10T10:23:37;99739.34;;;19.30;34.94
63554;BME280;49699;48.072;7.800;2023-04-10T10:26:04;99736.13;;;19.36;35.03
63554;BME280;49699;48.072;7.800;2023-04-10T10:28:30;99735.34;;;19.55;34.82
63554;BME280;49699;48.072;7.800;2023-04-10T10:30:56;99727.75;;;19.52;34.71
63554;BME280;49699;48.072;7.800;2023-04-10T10:33:22;99725.03;;;19.32;34.81
63554;BME280;49699;48.072;7.800;2023-04-10T10:35:49;99718.78;;;19.33;34.90
63554;BME280;49699;48.072;7.800;2023-04-10T10:38:14;99729.25;;;19.54;34.64
63554;BME280;49699;48.072;7.800;2023-04-10T10:46:09;99715.34;;;19.91;33.31
63554;BME280;49699;48.072;7.800;2023-04-10T10:48:36;99709.53;;;19.87;33.32
63554;BME280;49699;48.072;7.800;2023-04-10T10:51:02;99711.19;;;19.79;32.91
63554;BME280;49699;48.072;7.800;2023-04-10T10:55:56;99704.50;;;19.46;32.98
63554;BME280;49699;48.072;7.800;2023-04-10T10:58:44;99702.53;;;19.38;33.11
63554;BME280;49699;48.072;7.800;2023-04-10T11:01:07;99693.41;;;19.52;33.09
63554;BME280;49699;48.072;7.800;2023-04-10T11:03:32;99698.28;;;19.66;32.78
63554;BME280;49699;48.072;7.800;2023-04-10T11:05:58;99698.41;;;19.64;32.68
63554;BME280;49699;48.072;7.800;2023-04-10T11:13:23;99693.00;;;19.66;32.58
63554;BME280;49699;48.072;7.800;2023-04-10T11:15:50;99686.59;;;19.68;32.58
63554;BME280;49699;48.072;7.800;2023-04-10T11:18:15;99692.59;;;19.70;32.40
63554;BME280;49699;48.072;7.800;2023-04-10T11:23:25;99685.41;;;20.09;31.91
63554;BME280;49699;48.072;7.800;2023-04-10T11:25:53;99682.44;;;20.32;31.67
63554;BME280;49699;48.072;7.800;2023-04-10T11:33:42;99666.47;;;20.61;31.92
63554;BME280;49699;48.072;7.800;2023-04-10T11:36:09;99660.16;;;20.71;31.88
63554;BME280;49699;48.072;7.800;2023-04-10T11:38:34;99655.97;;;20.96;31.56
63554;BME280;49699;48.072;7.800;2023-04-10T11:41:01;99673.88;;;21.12;31.49
63554;BME280;49699;48.072;7.800;2023-04-10T11:43:28;99675.56;;;21.03;31.48
63554;BME280;49699;48.072;7.800;2023-04-10T11:46:00;99674.38;;;20.70;31.77
63554;BME280;49699;48.072;7.800;2023-04-10T11:48:26;99678.56;;;20.63;32.08
63554;BME280;49699;48.072;7.800;2023-04-10T11:50:52;99675.00;;;20.55;32.26
63554;BME280;49699;48.072;7.800;2023-04-10T11:53:17;99681.84;;;20.48;32.43
63554;BME280;49699;48.072;7.800;2023-04-10T11:55:43;99676.00;;;20.54;32.38
63554;BME280;49699;48.072;7.800;2023-04-10T11:58:26;99667.38;;;20.52;32.40
63554;BME280;49699;48.072;7.800;2023-04-10T12:01:02;99669.59;;;20.47;32.44
63554;BME280;49699;48.072;7.800;2023-04-10T12:03:37;99662.13;;;20.32;32.58
63554;BME280;49699;48.072;7.800;2023-04-10T12:06:07;99658.94;;;20.29;32.66
63554;BME280;49699;48.072;7.800;2023-04-10T12:08:34;99657.13;;;20.29;32.77
63554;BME280;49699;48.072;7.800;2023-04-10T12:11:00;99654.34;;;20.31;32.72
63554;BME280;49699;48.072;7.800;2023-04-10T12:13:29;99639.59;;;20.38;32.54
63554;BME280;49699;48.072;7.800;2023-04-10T12:15:56;99629.09;;;20.56;32.40
63554;BME280;49699;48.072;7.800;2023-04-10T12:18:22;99635.41;;;20.72;32.14
63554;BME280;49699;48.072;7.800;2023-04-10T12:20:48;99634.34;;;20.83;31.97
63554;BME280;49699;48.072;7.800;2023-04-10T12:23:15;99625.97;;;20.88;32.12
63554;BME280;49699;48.072;7.800;2023-04-10T12:25:41;99626.78;;;20.88;32.20
63554;BME280;49699;48.072;7.800;2023-04-10T12:28:07;99621.28;;;20.99;32.01
63554;BME280;49699;48.072;7.800;2023-04-10T12:30:32;99616.63;;;21.11;32.02
63554;BME280;49699;48.072;7.800;2023-04-10T12:32:57;99623.91;;;21.27;31.93
63554;BME280;49699;48.072;7.800;2023-04-10T12:35:37;99622.16;;;21.35;31.76
63554;BME280;49699;48.072;7.800;2023-04-10T12:38:02;99623.97;;;21.35;31.71
63554;BME280;49699;48.072;7.800;2023-04-10T12:40:58;99618.06;;;21.23;31.75
63554;BME280;49699;48.072;7.800;2023-04-10T12:43:30;99612.59;;;21.07;32.39
63554;BME280;49699;48.072;7.800;2023-04-10T12:45:56;99615.84;;;21.01;32.18
63554;BME280;49699;48.072;7.800;2023-04-10T12:48:22;99614.03;;;21.01;32.23
63554;BME280;49699;48.072;7.800;2023-04-10T12:50:47;99614.25;;;20.90;32.38
63554;BME280;49699;48.072;7.800;2023-04-10T12:53:13;99612.50;;;20.99;32.22
63554;BME280;49699;48.072;7.800;2023-04-10T12:55:38;99601.50;;;21.21;31.79
63554;BME280;49699;48.072;7.800;2023-04-10T12:58:16;99598.69;;;21.40;31.57
63554;BME280;49699;48.072;7.800;2023-04-10T13:00:42;99591.03;;;21.55;31.09
63554;BME280;49699;48.072;7.800;2023-04-10T13:03:07;99585.94;;;21.62;30.71
63554;BME280;49699;48.072;7.800;2023-04-10T13:05:32;99590.28;;;21.63;30.98
63554;BME280;49699;48.072;7.800;2023-04-10T13:07:58;99584.31;;;21.69;30.60
63554;BME280;49699;48.072;7.800;2023-04-10T13:10:23;99580.44;;;21.55;30.39
63554;BME280;49699;48.072;7.800;2023-04-10T13:12:48;99576.53;;;21.41;30.25
63554;BME280;49699;48.072;7.800;2023-04-10T13:15:14;99577.28;;;21.34;30.07
63554;BME280;49699;48.072;7.800;2023-04-10T13:17:40;99574.34;;;21.37;30.23
63554;BME280;49699;48.072;7.800;2023-04-10T13:20:06;99586.44;;;21.39;30.09
63554;BME280;49699;48.072;7.800;2023-04-10T13:22:31;99575.31;;;21.36;28.73
63554;BME280;49699;48.072;7.800;2023-04-10T13:24:57;99574.28;;;21.29;28.16
63554;BME280;49699;48.072;7.800;2023-04-10T13:27:23;99570.72;;;21.20;27.72
63554;BME280;49699;48.072;7.800;2023-04-10T13:29:48;99564.00;;;21.08;27.38
63554;BME280;49699;48.072;7.800;2023-04-10T13:32:13;99554.16;;;21.00;27.69
63554;BME280;49699;48.072;7.800;2023-04-10T13:34:39;99564.06;;;20.98;27.91
63554;BME280;49699;48.072;7.800;2023-04-10T13:37:04;99559.53;;;20.91;28.06
63554;BME280;49699;48.072;7.800;2023-04-10T13:39:30;99553.16;;;20.84;28.46
63554;BME280;49699;48.072;7.800;2023-04-10T13:41:55;99552.41;;;20.73;28.31
63554;BME280;49699;48.072;7.800;2023-04-10T13:44:21;99540.56;;;20.60;28.49
63554;BME280;49699;48.072;7.800;2023-04-10T13:46:47;99533.94;;;20.46;28.74
63554;BME280;49699;48.072;7.800;2023-04-10T13:49:12;99525.22;;;20.36;28.90
63554;BME280;49699;48.072;7.800;2023-04-10T13:51:41;99519.94;;;20.36;28.97
63554;BME280;49699;48.072;7.800;2023-04-10T13:54:06;99531.38;;;20.36;29.24
63554;BME280;49699;48.072;7.800;2023-04-10T13:56:32;99523.84;;;20.32;29.37